Skyline Lakes, New Jersey
Current Conditions -  °F | °C
As of 5:53 AM on Wednesday 22 Oct 2014 (Local Time) from KCDW Reporting Station
Light Rain Light Rain  
Wind Chill: 12°   Ceiling: 1200
Heat Index: 12°   Visibility: 7mi
Dew Point: 11°   Wind: 6mph
Humidity: 90%   Direction: 60°ENE
Pressure: 29.92"   Gusts: NA
Location:  41.1036°N, 74.2801°W
Report Text: KCDW 220953Z AUTO 06005KT 7SM -RA OVC012 12/11 A2992 RMK AO2 SLP136 P0002 T01220106 TSNO
Loading
Personal Weather Stations






























Interactive Weather Map
Tropical Storm Tracking
New forecast layout! Learn more

10-Day Weather Forecast

Advertisements
Track Severe Weather on mobile